Time;durP1;ratioP1;P1;durP2;ratioP2;P2;SDS_P1;SDS_P2;PMS_P1;PMS_P2;Temp;Humidity;BMP_temperature;BMP_pressure;BME280_temperature;BME280_humidity;BME280_pressure;Samples;Min_cycle;Max_cycle;Signal;HPM_P1;HPM_P2
2021/08/27 00:01:01;;;;;;;1.23;0.52;;;;;;;16.87;91.15;100527.53;4991086;28;20109;-68
2021/08/27 00:03:27;;;;;;;1.15;0.50;;;;;;;16.82;90.95;100519.03;4990471;28;20045;-68
2021/08/27 00:05:52;;;;;;;0.40;0.22;;;;;;;16.78;90.65;100529.16;4985539;28;20038;-68
2021/08/27 00:08:18;;;;;;;0.63;0.38;;;;;;;16.77;90.68;100525.66;4988144;28;20045;-68
2021/08/27 00:10:43;;;;;;;2.25;0.50;;;;;;;16.70;90.87;100519.50;4991576;28;20057;-68
2021/08/27 00:13:10;;;;;;;1.30;0.65;;;;;;;16.65;91.31;100517.19;4986090;28;20582;-68
2021/08/27 00:15:36;;;;;;;1.60;0.38;;;;;;;16.54;91.40;100513.78;4987239;28;20038;-68
2021/08/27 00:18:01;;;;;;;0.80;0.70;;;;;;;16.47;91.38;100511.84;4991701;28;20113;-68
2021/08/27 00:20:27;;;;;;;1.90;0.60;;;;;;;16.41;91.92;100512.66;4990475;28;20063;-68
2021/08/27 00:22:52;;;;;;;0.40;0.40;;;;;;;16.51;91.64;100518.06;4983243;28;20110;-68
2021/08/27 00:25:18;;;;;;;3.20;0.30;;;;;;;16.41;91.65;100512.66;4982758;28;20062;-68
2021/08/27 00:27:43;;;;;;;0.43;0.30;;;;;;;16.38;92.04;100519.66;5004702;28;20030;-68
2021/08/27 00:30:10;;;;;;;1.50;0.50;;;;;;;16.40;91.92;100511.88;4988634;28;20112;-68
2021/08/27 00:32:35;;;;;;;1.95;0.52;;;;;;;16.39;91.79;100520.44;4974663;28;20039;-68
2021/08/27 00:35:04;;;;;;;1.45;0.50;;;;;;;16.38;92.08;100521.59;4981958;28;20037;-68
2021/08/27 00:37:30;;;;;;;0.95;0.50;;;;;;;16.45;92.24;100514.19;4981833;28;20045;-68
2021/08/27 00:39:56;;;;;;;4.03;0.80;;;;;;;16.47;92.12;100522.72;5005703;28;20129;-68
2021/08/27 00:42:21;;;;;;;0.40;0.32;;;;;;;16.46;92.33;100504.84;4990367;28;20161;-68
2021/08/27 00:44:47;;;;;;;1.05;0.40;;;;;;;16.40;91.81;100509.16;4992202;28;20519;-68
2021/08/27 00:47:12;;;;;;;1.33;0.50;;;;;;;16.44;92.14;100499.03;4983332;28;20042;-68
2021/08/27 00:49:38;;;;;;;0.93;0.50;;;;;;;16.46;91.86;100517.66;4982833;28;20038;-68
2021/08/27 00:52:06;;;;;;;0.70;0.50;;;;;;;16.47;91.75;100505.63;4990885;28;20113;-68
2021/08/27 00:54:32;;;;;;;0.65;0.45;;;;;;;16.49;91.61;100506.03;4980364;28;20054;-68
2021/08/27 00:56:58;;;;;;;1.13;0.60;;;;;;;16.50;91.19;100510.28;4988405;28;20507;-68
2021/08/27 00:59:23;;;;;;;1.30;0.70;;;;;;;16.46;91.56;100501.34;4984606;28;20041;-68
2021/08/27 01:01:49;;;;;;;1.67;0.68;;;;;;;16.45;91.10;100507.97;4987833;28;20043;-68
2021/08/27 01:04:15;;;;;;;0.52;0.47;;;;;;;16.40;91.90;100505.66;4991418;28;20031;-68
2021/08/27 01:06:45;;;;;;;1.77;0.50;;;;;;;16.40;91.58;100500.22;4989035;28;20034;-68
2021/08/27 01:09:51;;;;;;;2.30;0.43;;;;;;;16.35;91.66;100501.44;4982248;28;20061;-68
2021/08/27 01:12:50;;;;;;;1.63;0.57;;;;;;;16.37;91.38;100490.16;4985965;28;20129;-68
2021/08/27 01:15:27;;;;;;;0.73;0.40;;;;;;;16.37;91.41;100492.88;4983634;28;20542;-68
2021/08/27 01:18:03;;;;;;;0.82;0.60;;;;;;;16.32;91.85;100493.31;4988833;28;20069;-68
2021/08/27 01:20:37;;;;;;;1.35;0.57;;;;;;;16.22;92.12;100484.78;4990298;28;20058;-68
2021/08/27 01:23:23;;;;;;;1.05;0.40;;;;;;;16.30;92.11;100490.22;4987472;28;20423;-68
2021/08/27 01:25:53;;;;;;;1.23;0.47;;;;;;;16.25;91.91;100492.19;4986862;28;20457;-68
2021/08/27 01:28:21;;;;;;;2.78;0.80;;;;;;;16.25;91.87;100499.53;4990009;28;20041;-68
2021/08/27 01:30:59;;;;;;;0.90;0.77;;;;;;;16.23;91.57;100491.78;4990304;28;20041;-68
2021/08/27 01:33:27;;;;;;;0.55;0.40;;;;;;;16.21;91.83;100480.53;4989883;28;20027;-68
2021/08/27 01:35:57;;;;;;;0.40;0.40;;;;;;;16.30;91.03;100490.22;4990435;28;20124;-68
2021/08/27 01:38:28;;;;;;;0.40;0.32;;;;;;;16.21;92.01;100490.63;4985500;28;20034;-68
2021/08/27 01:40:55;;;;;;;1.10;0.50;;;;;;;16.26;91.65;100479.34;4976796;28;20039;-68
2021/08/27 01:43:23;;;;;;;1.50;0.60;;;;;;;16.22;91.66;100481.28;4989096;28;20066;-68
2021/08/27 01:45:53;;;;;;;0.82;0.60;;;;;;;16.10;92.19;100487.22;4985098;28;20042;-68
2021/08/27 01:48:19;;;;;;;4.55;0.50;;;;;;;16.14;92.34;100486.00;4990443;28;20042;-68
2021/08/27 01:50:46;;;;;;;3.47;0.63;;;;;;;16.13;92.18;100484.47;4989696;28;20034;-68
2021/08/27 01:53:12;;;;;;;2.63;0.65;;;;;;;16.09;92.06;100480.22;4984574;28;20101;-68
2021/08/27 01:55:39;;;;;;;1.67;0.55;;;;;;;16.12;92.32;100474.75;4989844;28;20034;-68
2021/08/27 01:58:06;;;;;;;1.17;0.60;;;;;;;16.11;92.11;100480.59;4989053;28;20097;-68
2021/08/27 02:00:31;;;;;;;1.13;0.40;;;;;;;16.06;92.09;100475.59;4986851;28;20046;-68
2021/08/27 02:02:59;;;;;;;0.63;0.43;;;;;;;16.10;91.61;100473.63;4989346;28;20565;-68
2021/08/27 02:05:26;;;;;;;0.98;0.60;;;;;;;16.00;91.90;100477.16;4986602;28;20038;-68
2021/08/27 02:07:52;;;;;;;1.40;0.43;;;;;;;15.98;91.75;100474.84;4987862;28;20066;-68
2021/08/27 02:10:18;;;;;;;0.82;0.45;;;;;;;15.98;91.73;100471.34;4988747;28;20034;-68
2021/08/27 02:12:44;;;;;;;0.60;0.60;;;;;;;16.00;91.96;100472.50;4987357;28;20507;-68
2021/08/27 02:15:10;;;;;;;0.70;0.35;;;;;;;15.94;91.48;100474.09;5003678;28;20038;-68
2021/08/27 02:17:36;;;;;;;1.00;0.50;;;;;;;16.08;90.71;100482.19;4984388;28;20026;-68
2021/08/27 02:20:02;;;;;;;0.85;0.50;;;;;;;16.01;91.56;100482.19;4982382;28;20459;-68
2021/08/27 02:22:32;;;;;;;1.10;0.57;;;;;;;16.02;91.27;100474.81;4979660;28;20038;-68
2021/08/27 02:25:12;;;;;;;2.38;0.65;;;;;;;15.99;91.12;100475.59;5014227;23;20405;-68
2021/08/27 02:27:39;;;;;;;1.00;0.50;;;;;;;16.09;90.92;100477.50;5045672;28;20044;-67
2021/08/27 02:30:06;;;;;;;1.17;0.57;;;;;;;16.02;91.36;100478.31;5049148;28;20041;-68
2021/08/27 02:32:33;;;;;;;1.23;0.45;;;;;;;15.97;91.57;100478.72;5045909;28;20037;-66
2021/08/27 02:35:02;;;;;;;0.50;0.50;;;;;;;15.98;91.66;100477.56;5027566;28;20747;-67
2021/08/27 02:37:34;;;;;;;2.22;0.52;;;;;;;16.00;91.54;100475.22;5031483;28;20120;-68
2021/08/27 02:40:01;;;;;;;0.93;0.40;;;;;;;15.99;91.52;100470.16;5033624;28;20029;-68
2021/08/27 02:42:28;;;;;;;5.00;1.45;;;;;;;15.94;91.27;100471.38;5028918;28;20041;-68
2021/08/27 02:44:56;;;;;;;1.42;0.55;;;;;;;15.92;91.57;100470.22;5024737;28;20036;-67
2021/08/27 02:47:22;;;;;;;1.33;0.60;;;;;;;16.01;91.04;100468.59;5030559;28;20077;-67
2021/08/27 02:49:51;;;;;;;0.35;0.30;;;;;;;16.01;91.58;100471.31;5033151;28;20044;-67
2021/08/27 02:53:01;;;;;;;1.77;0.60;;;;;;;15.93;91.47;100472.53;5032754;28;20393;-66
2021/08/27 02:55:35;;;;;;;0.38;0.38;;;;;;;15.97;91.99;100467.06;4989049;28;20038;-67
2021/08/27 02:58:20;;;;;;;0.70;0.30;;;;;;;15.94;91.43;100468.66;5030038;28;20089;-68
2021/08/27 03:01:24;;;;;;;0.70;0.43;;;;;;;15.98;90.98;100460.47;5027038;28;20550;-67
2021/08/27 03:04:35;;;;;;;3.05;0.60;;;;;;;15.98;91.32;100457.75;5011443;28;20049;-68
2021/08/27 03:07:05;;;;;;;1.23;0.50;;;;;;;15.93;92.04;100450.78;5033347;28;20444;-68
2021/08/27 03:09:42;;;;;;;1.35;0.57;;;;;;;15.98;92.17;100444.19;5030368;28;20045;-68
2021/08/27 03:12:11;;;;;;;0.70;0.68;;;;;;;16.03;91.91;100439.09;5031525;28;20045;-68
2021/08/27 03:14:40;;;;;;;0.38;0.30;;;;;;;15.94;91.98;100446.91;5031827;28;20108;-68
2021/08/27 03:17:14;;;;;;;1.83;0.55;;;;;;;15.96;92.03;100444.59;5030295;28;20025;-67
2021/08/27 03:19:48;;;;;;;2.30;0.65;;;;;;;15.98;91.93;100431.38;5029263;28;20045;-68
2021/08/27 03:22:20;;;;;;;1.05;0.50;;;;;;;15.91;92.41;100434.13;5031829;28;20481;-67
2021/08/27 03:24:54;;;;;;;1.05;0.30;;;;;;;15.96;92.19;100443.81;5031235;28;20037;-67
2021/08/27 03:27:24;;;;;;;1.02;0.60;;;;;;;15.99;91.58;100432.13;5029422;28;20056;-68
2021/08/27 03:29:58;;;;;;;0.90;0.50;;;;;;;15.98;92.15;100436.03;5032607;28;20095;-68
2021/08/27 03:32:24;;;;;;;1.38;0.70;;;;;;;15.95;92.55;100424.00;5031341;28;20029;-68
2021/08/27 03:34:51;;;;;;;0.85;0.68;;;;;;;15.95;92.44;100432.16;5029647;28;20033;-68
2021/08/27 03:37:18;;;;;;;1.75;0.50;;;;;;;16.01;93.27;100435.22;5031511;28;20014;-67
2021/08/27 03:39:44;;;;;;;1.27;0.55;;;;;;;15.98;94.32;100415.09;5032776;28;20037;-68
2021/08/27 03:42:14;;;;;;;4.30;1.08;;;;;;;16.01;94.50;100425.13;5030699;28;20524;-67
2021/08/27 03:44:40;;;;;;;1.15;0.50;;;;;;;15.99;95.79;100426.69;5029353;28;20052;-67
2021/08/27 03:47:07;;;;;;;1.55;0.50;;;;;;;15.98;96.93;100412.38;5029352;28;20079;-68
2021/08/27 03:49:33;;;;;;;1.45;0.47;;;;;;;15.95;97.71;100418.56;5013293;28;20502;-67
2021/08/27 03:51:59;;;;;;;1.50;0.70;;;;;;;15.88;97.43;100420.56;5012724;28;20099;-67
2021/08/27 03:54:25;;;;;;;2.15;0.70;;;;;;;15.91;97.64;100417.81;5029276;28;20112;-68
2021/08/27 03:56:52;;;;;;;1.17;0.77;;;;;;;15.90;98.34;100415.50;5031967;28;20048;-68
2021/08/27 03:59:19;;;;;;;0.63;0.47;;;;;;;15.86;98.43;100418.25;5029571;28;20076;-67
2021/08/27 04:01:45;;;;;;;2.20;0.38;;;;;;;15.88;98.92;100413.19;5022385;28;20041;-68
2021/08/27 04:04:20;;;;;;;0.85;0.50;;;;;;;15.88;98.72;100420.56;5014888;28;20041;-68
2021/08/27 04:06:56;;;;;;;1.67;0.65;;;;;;;15.86;99.23;100412.81;5024686;28;20088;-68
2021/08/27 04:09:22;;;;;;;6.43;0.55;;;;;;;15.89;99.50;100422.88;5029275;28;20052;-68
2021/08/27 04:11:49;;;;;;;2.00;0.60;;;;;;;15.81;99.71;100420.59;5030567;28;20482;-67
2021/08/27 04:14:15;;;;;;;1.00;0.40;;;;;;;15.76;99.79;100412.84;5020567;28;20477;-68
2021/08/27 04:16:44;;;;;;;1.52;0.40;;;;;;;15.75;100.00;100419.47;5029488;28;20084;-67
2021/08/27 04:19:10;;;;;;;3.72;0.50;;;;;;;15.74;100.00;100415.97;5028617;28;20412;-68
2021/08/27 04:21:35;;;;;;;1.35;0.50;;;;;;;15.76;100.00;100415.56;5030702;28;20052;-68
2021/08/27 04:24:01;;;;;;;1.45;0.43;;;;;;;15.78;100.00;100415.94;5025992;28;20041;-68
2021/08/27 04:26:26;;;;;;;0.70;0.47;;;;;;;15.81;100.00;100410.53;5024088;28;20040;-66
2021/08/27 04:28:52;;;;;;;0.70;0.50;;;;;;;15.84;100.00;100417.09;5026879;28;20021;-68
2021/08/27 04:31:17;;;;;;;0.85;0.45;;;;;;;15.81;100.00;100410.53;5030533;28;20056;-66
2021/08/27 04:33:43;;;;;;;2.38;0.70;;;;;;;15.79;100.00;100406.66;5020153;28;20076;-67
2021/08/27 04:36:08;;;;;;;1.40;0.60;;;;;;;15.79;100.00;100396.56;5030697;28;20035;-66
2021/08/27 04:38:34;;;;;;;1.35;0.50;;;;;;;15.82;100.00;100405.84;5030716;28;20116;-68
2021/08/27 04:40:59;;;;;;;0.88;0.45;;;;;;;15.81;100.00;100402.38;5026025;28;20108;-68
2021/08/27 04:43:25;;;;;;;1.13;0.50;;;;;;;15.79;100.00;100414.78;5021527;28;20070;-67
2021/08/27 04:45:50;;;;;;;0.60;0.40;;;;;;;15.77;100.00;100407.03;5023467;28;20026;-67
2021/08/27 04:48:15;;;;;;;0.57;0.30;;;;;;;15.77;100.00;100409.75;5027598;28;20117;-67
2021/08/27 04:50:41;;;;;;;1.55;0.70;;;;;;;15.79;100.00;100402.00;5025515;28;20041;-67
2021/08/27 04:53:07;;;;;;;1.83;0.60;;;;;;;15.77;100.00;100403.56;5025138;28;20037;-67
2021/08/27 04:55:32;;;;;;;1.73;0.60;;;;;;;15.75;100.00;100401.25;5019589;28;20099;-67
2021/08/27 04:57:58;;;;;;;0.73;0.47;;;;;;;15.76;100.00;100402.00;5008778;28;20416;-67
2021/08/27 05:00:23;;;;;;;3.13;0.50;;;;;;;15.79;100.00;100396.56;5009776;28;20081;-67
2021/08/27 05:02:49;;;;;;;0.85;0.35;;;;;;;15.79;100.00;100414.78;5007694;28;20547;-68
2021/08/27 05:05:14;;;;;;;4.03;0.50;;;;;;;15.88;100.00;100407.75;5027625;28;20038;-67
2021/08/27 05:07:40;;;;;;;1.70;0.40;;;;;;;15.84;100.00;100406.22;5023802;28;20037;-68
2021/08/27 05:10:05;;;;;;;0.60;0.43;;;;;;;15.86;100.00;100406.59;5022485;28;20038;-68
2021/08/27 05:12:33;;;;;;;0.98;0.30;;;;;;;15.88;100.00;100405.03;5014862;28;20156;-67
2021/08/27 05:14:58;;;;;;;1.55;0.50;;;;;;;15.86;100.00;100414.75;5013720;28;20051;-67
2021/08/27 05:17:24;;;;;;;1.85;0.60;;;;;;;15.86;100.00;100410.09;5022193;28;20112;-68
2021/08/27 05:19:50;;;;;;;0.60;0.30;;;;;;;15.90;100.00;100418.22;5025374;28;20037;-67
2021/08/27 05:22:15;;;;;;;0.60;0.43;;;;;;;15.89;100.00;100417.44;5016343;28;20034;-67
2021/08/27 05:24:41;;;;;;;0.60;0.50;;;;;;;15.84;100.00;100411.66;5021227;28;20041;-68
2021/08/27 05:27:06;;;;;;;3.17;0.52;;;;;;;15.88;100.00;100410.47;5028956;28;20033;-68
2021/08/27 05:29:31;;;;;;;1.35;0.60;;;;;;;15.91;100.00;100420.53;5026241;28;20414;-68
2021/08/27 05:31:57;;;;;;;4.20;0.60;;;;;;;16.02;100.00;100415.84;5026302;28;20160;-67
2021/08/27 05:34:22;;;;;;;0.75;0.43;;;;;;;16.01;100.00;100410.78;5028892;28;20182;-68
2021/08/27 05:36:48;;;;;;;1.83;0.40;;;;;;;16.01;100.00;100425.13;5022662;28;20033;-67
2021/08/27 05:39:13;;;;;;;0.50;0.40;;;;;;;16.00;100.00;100417.41;5029316;28;20034;-67
2021/08/27 05:41:39;;;;;;;0.85;0.30;;;;;;;15.98;100.00;100412.38;4994160;28;20144;-68
2021/08/27 05:44:05;;;;;;;0.70;0.60;;;;;;;15.98;100.00;100412.38;5025204;28;20037;-67
2021/08/27 05:46:30;;;;;;;1.30;0.60;;;;;;;16.05;100.00;100412.31;5025844;28;20036;-67
2021/08/27 05:48:55;;;;;;;4.18;0.70;;;;;;;16.07;100.00;100422.78;5028768;28;20037;-67
2021/08/27 05:51:21;;;;;;;1.00;0.50;;;;;;;16.10;100.00;100416.56;5028892;28;20037;-67
2021/08/27 05:53:46;;;;;;;0.40;0.40;;;;;;;16.11;100.00;100428.97;5024574;28;20037;-67
2021/08/27 05:56:12;;;;;;;1.52;0.90;;;;;;;16.09;100.00;100413.06;5020707;28;20029;-66
2021/08/27 05:58:38;;;;;;;0.60;0.40;;;;;;;16.19;100.00;100422.31;5020018;28;20510;-67
2021/08/27 06:01:03;;;;;;;1.70;0.60;;;;;;;16.15;100.00;100425.06;5011951;28;20557;-68
2021/08/27 06:03:29;;;;;;;2.67;0.45;;;;;;;16.21;100.00;100425.41;5017164;28;20099;-67
2021/08/27 06:05:54;;;;;;;1.25;0.60;;;;;;;16.16;100.00;100413.00;5011162;28;20129;-67
2021/08/27 06:08:20;;;;;;;2.20;0.22;;;;;;;16.22;100.00;100430.44;5007725;28;20448;-68
2021/08/27 06:10:45;;;;;;;0.82;0.30;;;;;;;16.23;100.00;100431.22;5010639;28;20037;-67
2021/08/27 06:13:11;;;;;;;1.55;0.70;;;;;;;16.20;100.00;100438.22;5015189;28;20121;-66
2021/08/27 06:15:36;;;;;;;0.60;0.40;;;;;;;16.30;100.00;100436.59;5013410;28;20041;-68
2021/08/27 06:18:02;;;;;;;0.50;0.32;;;;;;;16.24;100.00;100438.97;5010711;28;20033;-68
2021/08/27 06:20:27;;;;;;;2.17;0.32;;;;;;;16.28;100.00;100447.88;5010839;28;20673;-68
2021/08/27 06:22:53;;;;;;;2.10;0.70;;;;;;;16.30;100.00;100436.59;5014512;28;20034;-67
2021/08/27 06:25:18;;;;;;;0.57;0.28;;;;;;;16.32;100.00;100449.81;5017580;28;20048;-67
2021/08/27 06:27:44;;;;;;;0.45;0.40;;;;;;;16.34;100.00;100456.38;5028680;28;20095;-67
2021/08/27 06:30:10;;;;;;;0.70;0.50;;;;;;;16.38;100.00;100448.19;5017680;28;20037;-67
2021/08/27 06:32:36;;;;;;;0.85;0.32;;;;;;;16.46;100.00;100457.88;5021858;28;20516;-67
2021/08/27 06:35:01;;;;;;;1.10;0.43;;;;;;;16.45;100.00;100456.31;5025315;28;20068;-67
2021/08/27 06:40:14;;;;;;;1.38;0.60;;;;;;;16.39;100.00;100463.34;5025685;28;20052;-68
2021/08/27 06:42:40;;;;;;;0.40;0.30;;;;;;;16.42;100.00;100465.25;5027383;28;20108;-68
2021/08/27 06:45:07;;;;;;;0.60;0.47;;;;;;;16.44;100.00;100452.03;5021358;28;20183;-68
2021/08/27 06:47:32;;;;;;;0.70;0.50;;;;;;;16.58;100.00;100460.16;5007455;28;20120;-67
2021/08/27 06:49:58;;;;;;;7.05;1.08;;;;;;;16.60;100.00;100455.84;5025321;28;20128;-68
2021/08/27 06:52:23;;;;;;;0.38;0.30;;;;;;;16.64;100.00;100455.81;5027389;28;20041;-68
2021/08/27 06:54:48;;;;;;;1.13;0.43;;;;;;;16.74;100.00;100450.28;5025689;28;20498;-67
2021/08/27 06:57:14;;;;;;;0.43;0.30;;;;;;;16.87;100.00;100448.66;5026125;28;20032;-68
2021/08/27 06:59:39;;;;;;;0.75;0.40;;;;;;;17.08;100.00;100448.44;5028829;28;20135;-66
2021/08/27 07:02:05;;;;;;;1.25;0.35;;;;;;;17.43;100.00;100457.41;5024570;28;20043;-67
2021/08/27 07:04:31;;;;;;;0.95;0.80;;;;;;;17.72;100.00;100454.00;4994115;28;20045;-67
2021/08/27 07:06:57;;;;;;;0.50;0.30;;;;;;;18.00;100.00;100461.81;5027488;28;20084;-66
2021/08/27 07:09:23;;;;;;;0.82;0.50;;;;;;;18.23;100.00;100455.69;5009340;28;20041;-67
2021/08/27 07:11:49;;;;;;;0.65;0.25;;;;;;;18.42;100.00;100467.88;5026185;28;20036;-67
2021/08/27 07:14:15;;;;;;;0.93;0.30;;;;;;;18.49;100.00;100465.06;5026937;28;20490;-67
2021/08/27 07:16:41;;;;;;;0.52;0.43;;;;;;;18.55;100.00;100466.13;5023660;28;20029;-67
2021/08/27 07:19:07;;;;;;;0.52;0.40;;;;;;;18.54;100.00;100478.25;5021511;28;20032;-67
2021/08/27 07:21:32;;;;;;;0.32;0.32;;;;;;;18.48;100.00;100475.22;5018434;28;20107;-67
2021/08/27 07:23:57;;;;;;;1.65;0.28;;;;;;;18.47;100.00;100470.94;5025328;28;20025;-68
2021/08/27 07:26:23;;;;;;;2.03;0.50;;;;;;;18.36;100.00;100480.41;5031627;28;20049;-67
2021/08/27 07:28:48;;;;;;;1.15;0.50;;;;;;;18.32;100.00;100480.47;5012350;28;20029;-67
2021/08/27 07:31:14;;;;;;;0.57;0.40;;;;;;;18.26;100.00;100481.31;5023238;28;20486;-67
2021/08/27 07:33:39;;;;;;;0.38;0.30;;;;;;;18.28;100.00;100484.41;5033214;28;20033;-67
2021/08/27 07:36:05;;;;;;;0.60;0.38;;;;;;;18.25;100.00;100483.31;5027952;28;20033;-67
2021/08/27 07:38:30;;;;;;;0.65;0.40;;;;;;;18.19;100.00;100481.44;5027211;28;20065;-68
2021/08/27 07:40:56;;;;;;;0.80;0.50;;;;;;;18.07;100.00;100485.50;5027981;28;20033;-67
2021/08/27 07:43:21;;;;;;;0.85;0.52;;;;;;;18.04;100.00;100483.56;5025196;28;20061;-67
2021/08/27 07:45:48;;;;;;;0.43;0.35;;;;;;;17.99;100.00;100484.81;5031990;28;20037;-67
2021/08/27 07:48:16;;;;;;;0.80;0.50;;;;;;;17.92;100.00;100486.84;5032541;28;20033;-67
2021/08/27 07:50:41;;;;;;;0.63;0.40;;;;;;;17.83;100.00;100497.47;5031818;28;20071;-68
2021/08/27 07:53:07;;;;;;;0.98;0.50;;;;;;;17.90;100.00;100497.38;5028442;28;20057;-67
2021/08/27 07:55:32;;;;;;;0.47;0.43;;;;;;;17.91;100.00;100501.66;5026850;28;20037;-67
2021/08/27 07:57:58;;;;;;;1.58;0.50;;;;;;;17.91;100.00;100496.19;5011218;28;20026;-67
2021/08/27 08:00:23;;;;;;;0.50;0.45;;;;;;;17.85;100.00;100504.06;5012179;28;20041;-69
2021/08/27 08:02:49;;;;;;;0.52;0.30;;;;;;;17.86;100.00;100497.44;5029357;28;20052;-67
2021/08/27 08:05:14;;;;;;;0.60;0.40;;;;;;;17.89;100.00;100512.97;5025225;28;20098;-70
2021/08/27 08:07:40;;;;;;;0.60;0.30;;;;;;;17.96;100.00;100501.97;5027736;28;20085;-67
2021/08/27 08:10:06;;;;;;;0.50;0.40;;;;;;;18.04;100.00;100505.38;5026748;28;20466;-67
2021/08/27 08:12:31;;;;;;;0.63;0.40;;;;;;;18.15;100.00;100503.31;5028233;28;20099;-68
2021/08/27 08:14:58;;;;;;;0.40;0.30;;;;;;;18.32;100.00;100510.47;5011835;28;20033;-67
2021/08/27 08:17:24;;;;;;;0.80;0.47;;;;;;;18.48;100.00;100513.41;5028570;28;20037;-67
2021/08/27 08:19:49;;;;;;;0.40;0.40;;;;;;;18.59;100.00;100511.28;5014569;28;20053;-67
2021/08/27 08:22:17;;;;;;;0.70;0.38;;;;;;;18.71;100.00;100507.97;5027032;28;20087;-66
2021/08/27 08:24:42;;;;;;;0.47;0.30;;;;;;;18.83;100.00;100509.38;5030693;22;20061;-68
2021/08/27 08:27:08;;;;;;;0.30;0.30;;;;;;;19.01;100.00;100506.34;5005838;28;20127;-68
2021/08/27 08:29:33;;;;;;;0.30;0.20;;;;;;;19.15;100.00;100509.59;4989079;28;20026;-68
2021/08/27 08:31:59;;;;;;;0.30;0.30;;;;;;;19.16;100.00;100518.56;5009401;28;20498;-68
2021/08/27 08:34:24;;;;;;;0.75;0.38;;;;;;;19.13;98.14;100511.97;4994501;28;20503;-68
2021/08/27 08:36:49;;;;;;;0.40;0.35;;;;;;;19.03;96.55;100526.56;4978668;28;20447;-68
2021/08/27 08:39:15;;;;;;;0.17;0.17;;;;;;;18.98;97.02;100527.06;4978098;28;20041;-68
2021/08/27 08:41:45;;;;;;;1.05;0.20;;;;;;;18.89;96.87;100527.56;4977133;28;20113;-68
2021/08/27 08:44:11;;;;;;;2.45;0.40;;;;;;;19.00;97.16;100530.16;4976180;28;20046;-68
2021/08/27 08:46:39;;;;;;;0.20;0.20;;;;;;;19.14;96.86;100526.41;4994365;28;20042;-68
2021/08/27 08:49:05;;;;;;;0.30;0.30;;;;;;;19.24;96.77;100528.19;4987907;28;20105;-68
2021/08/27 08:51:32;;;;;;;0.43;0.30;;;;;;;19.26;95.04;100529.31;4986820;28;20474;-68
2021/08/27 08:53:58;;;;;;;0.40;0.30;;;;;;;19.29;94.38;100527.69;4985792;28;20460;-68
2021/08/27 08:56:24;;;;;;;0.52;0.40;;;;;;;19.39;94.71;100534.97;4983496;28;20501;-68
2021/08/27 08:58:50;;;;;;;2.35;0.30;;;;;;;19.64;94.20;100536.06;4992741;28;20022;-68
2021/08/27 09:01:18;;;;;;;0.40;0.17;;;;;;;19.77;90.67;100531.53;4986154;28;20034;-68
2021/08/27 09:03:47;;;;;;;1.77;0.40;;;;;;;19.77;87.71;100544.41;4984987;28;20042;-68
2021/08/27 09:06:13;;;;;;;4.47;0.70;;;;;;;19.71;87.67;100540.63;4987254;28;20038;-68
2021/08/27 09:08:44;;;;;;;0.30;0.30;;;;;;;19.70;88.54;100544.56;4987738;28;20080;-68
2021/08/27 09:11:19;;;;;;;0.45;0.32;;;;;;;19.66;88.88;100539.16;4989549;28;20064;-68
2021/08/27 09:13:47;;;;;;;0.20;0.20;;;;;;;19.94;89.90;100543.28;4985460;28;20084;-68
2021/08/27 09:16:13;;;;;;;0.30;0.20;;;;;;;20.36;91.16;100545.19;4982727;28;20121;-68
2021/08/27 09:18:41;;;;;;;0.45;0.30;;;;;;;20.80;89.96;100532.88;4986168;28;20055;-68
2021/08/27 09:21:29;;;;;;;2.20;0.40;;;;;;;21.05;87.45;100538.56;4989191;28;20097;-68
2021/08/27 09:24:27;;;;;;;0.68;0.25;;;;;;;21.14;85.08;100538.72;4983912;28;20026;-68
2021/08/27 09:26:59;;;;;;;0.45;0.25;;;;;;;21.13;84.10;100545.41;4972602;28;20046;-68
2021/08/27 09:29:38;;;;;;;0.88;0.30;;;;;;;21.12;85.13;100546.59;4978686;28;20041;-68
2021/08/27 09:32:22;;;;;;;0.10;0.10;;;;;;;21.33;84.18;100542.56;4969181;28;20395;-68
2021/08/27 09:34:59;;;;;;;0.20;0.20;;;;;;;21.24;79.65;100551.38;4977311;28;20157;-68
2021/08/27 09:37:35;;;;;;;0.65;0.35;;;;;;;21.22;80.17;100559.25;4967215;28;20042;-68
2021/08/27 09:40:04;;;;;;;1.00;0.25;;;;;;;20.98;78.44;100562.56;4974741;28;20026;-68
2021/08/27 09:42:43;;;;;;;0.30;0.30;;;;;;;20.75;80.23;100565.47;4977289;28;20033;-68
2021/08/27 09:45:10;;;;;;;0.47;0.20;;;;;;;20.64;83.14;100562.94;4986620;28;20049;-68
2021/08/27 09:47:36;;;;;;;0.50;0.30;;;;;;;20.37;85.70;100565.09;4983501;28;20096;-68
2021/08/27 09:50:35;;;;;;;0.52;0.50;;;;;;;20.31;85.95;100569.53;4985293;28;20030;-68
2021/08/27 09:53:03;;;;;;;0.45;0.35;;;;;;;20.49;85.92;100578.94;4972338;28;20478;-68
2021/08/27 09:55:31;;;;;;;0.30;0.20;;;;;;;20.75;84.94;100568.94;4988104;28;20050;-68
2021/08/27 09:58:08;;;;;;;0.30;0.30;;;;;;;21.12;85.50;100565.75;4990398;28;20109;-68
2021/08/27 10:00:36;;;;;;;0.22;0.20;;;;;;;21.45;83.61;100571.97;4983624;28;20367;-68
2021/08/27 10:03:19;;;;;;;0.50;0.20;;;;;;;21.58;79.14;100562.63;4987397;28;20117;-68
2021/08/27 10:05:47;;;;;;;0.60;0.30;;;;;;;21.58;77.18;100565.38;4986967;28;20045;-68
2021/08/27 10:08:15;;;;;;;0.40;0.30;;;;;;;21.60;79.22;100569.66;4987376;28;20031;-68
2021/08/27 10:10:41;;;;;;;0.17;0.13;;;;;;;21.60;80.73;100580.63;4981352;28;20038;-68
2021/08/27 10:13:07;;;;;;;0.20;0.20;;;;;;;21.44;80.25;100582.19;4964598;28;20118;-68
2021/08/27 10:15:33;;;;;;;1.17;0.30;;;;;;;21.27;81.02;100583.38;4978734;28;20109;-68
2021/08/27 10:17:59;;;;;;;0.25;0.20;;;;;;;21.16;82.07;100588.34;4982649;28;20634;-68
2021/08/27 10:20:25;;;;;;;0.30;0.30;;;;;;;20.95;84.56;100591.56;4992209;28;20118;-68
2021/08/27 10:22:51;;;;;;;0.22;0.20;;;;;;;20.83;84.53;100580.53;4994962;28;20038;-68
2021/08/27 10:25:17;;;;;;;0.30;0.30;;;;;;;20.64;85.82;100595.78;4987257;28;20056;-68
2021/08/27 10:27:47;;;;;;;0.43;0.40;;;;;;;20.50;86.95;100585.16;4973506;28;20491;-68
2021/08/27 10:30:13;;;;;;;0.22;0.22;;;;;;;20.41;89.02;100587.69;4990399;28;20030;-68
2021/08/27 10:32:38;;;;;;;0.43;0.43;;;;;;;20.24;88.17;100588.84;4970632;28;20033;-68
2021/08/27 10:35:09;;;;;;;0.40;0.30;;;;;;;20.22;88.69;100594.75;4979947;28;20038;-68
2021/08/27 10:37:49;;;;;;;2.45;0.40;;;;;;;20.12;92.35;100595.69;4987331;28;20368;-68
2021/08/27 10:40:23;;;;;;;0.40;0.40;;;;;;;19.95;93.28;100594.06;4998893;28;20387;-69
2021/08/27 10:42:56;;;;;;;1.15;0.60;;;;;;;19.84;94.84;100584.53;4985053;28;20038;-69
2021/08/27 10:45:30;;;;;;;0.82;0.52;;;;;;;19.74;96.27;100584.28;4982466;28;20104;-69
2021/08/27 10:48:16;;;;;;;0.70;0.50;;;;;;;19.74;97.10;100584.28;4977461;28;20043;-69
2021/08/27 10:50:44;;;;;;;0.40;0.40;;;;;;;19.76;96.83;100594.81;4973042;28;20039;-69
2021/08/27 10:53:30;;;;;;;0.45;0.40;;;;;;;19.73;98.21;100585.47;4960949;28;20063;-69
2021/08/27 10:55:58;;;;;;;0.85;0.70;;;;;;;19.76;99.11;100590.09;4992280;28;20515;-69
2021/08/27 10:58:52;;;;;;;0.90;0.50;;;;;;;19.85;100.00;100586.84;4984543;28;20032;-69
2021/08/27 11:01:32;;;;;;;0.70;0.55;;;;;;;19.99;100.00;100592.03;4989760;28;20101;-69
2021/08/27 11:04:16;;;;;;;0.75;0.52;;;;;;;20.04;100.00;100599.75;4989142;28;20077;-69
2021/08/27 11:06:50;;;;;;;0.35;0.35;;;;;;;20.15;100.00;100591.34;4991036;28;20447;-68
2021/08/27 11:09:22;;;;;;;0.47;0.47;;;;;;;20.20;97.88;100599.84;4989558;28;20026;-68
2021/08/27 11:12:07;;;;;;;0.38;0.38;;;;;;;20.27;98.26;100599.69;4977523;28;20042;-69
2021/08/27 11:14:33;;;;;;;0.47;0.47;;;;;;;20.28;98.04;100612.19;4983867;28;20487;-68
2021/08/27 11:17:01;;;;;;;0.57;0.50;;;;;;;20.21;98.08;100612.31;4994618;28;20075;-68
2021/08/27 11:19:31;;;;;;;0.32;0.32;;;;;;;20.17;96.52;100622.53;4989897;28;20053;-68
2021/08/27 11:22:19;;;;;;;0.68;0.50;;;;;;;20.03;95.73;100613.84;4994652;28;20463;-69
2021/08/27 11:25:07;;;;;;;1.67;0.43;;;;;;;19.96;95.07;100612.00;4991246;28;20081;-68
2021/08/27 11:27:35;;;;;;;0.65;0.43;;;;;;;20.00;96.02;100625.59;4985608;28;20078;-68
2021/08/27 11:30:28;;;;;;;2.78;0.43;;;;;;;20.03;95.63;100613.84;4987959;28;20034;-68
2021/08/27 11:32:55;;;;;;;0.43;0.40;;;;;;;20.14;97.05;100608.94;4990261;28;20066;-68